createdAt,value
2017-07-21T00:00:52.276Z,84.40
2017-07-21T00:03:19.825Z,84.50
2017-07-21T00:05:47.265Z,83.60
2017-07-21T00:08:14.788Z,82.70
2017-07-21T00:10:42.432Z,83.20
2017-07-21T00:13:09.892Z,82.80
2017-07-21T00:15:37.341Z,82.80
2017-07-21T00:18:05.804Z,83.20
2017-07-21T00:20:33.254Z,83.10
2017-07-21T00:23:01.469Z,84.80
2017-07-21T00:25:28.946Z,83.90
2017-07-21T00:27:56.490Z,84.20
2017-07-21T00:30:24.024Z,84.00
2017-07-21T00:32:51.572Z,83.90
2017-07-21T00:35:19.064Z,83.70
2017-07-21T00:37:47.265Z,84.20
2017-07-21T00:40:15.504Z,83.50
2017-07-21T00:42:43.052Z,83.50
2017-07-21T00:45:10.597Z,84.40
2017-07-21T00:47:38.041Z,83.70
2017-07-21T00:50:05.614Z,83.90
2017-07-21T00:52:33.975Z,84.00
2017-07-21T00:55:02.255Z,83.90
2017-07-21T00:57:29.804Z,83.80
2017-07-21T00:59:57.322Z,84.30
2017-07-21T01:02:25.588Z,84.80
2017-07-21T01:04:53.850Z,85.00
2017-07-21T01:07:21.317Z,84.90
2017-07-21T01:09:48.934Z,84.60
2017-07-21T01:12:16.476Z,84.50
2017-07-21T01:14:44.706Z,85.10
2017-07-21T01:17:12.277Z,85.00
2017-07-21T01:19:40.538Z,85.30
2017-07-21T01:22:08.793Z,85.80
2017-07-21T01:24:37.057Z,85.50
2017-07-21T01:27:04.539Z,85.40
2017-07-21T01:29:32.039Z,85.70
2017-07-21T01:32:00.303Z,85.80
2017-07-21T01:34:28.566Z,85.50
2017-07-21T01:36:56.927Z,85.30
2017-07-21T01:39:24.494Z,85.20
2017-07-21T01:41:52.034Z,85.70
2017-07-21T01:44:20.307Z,85.60
2017-07-21T01:46:47.834Z,85.60
2017-07-21T01:49:16.197Z,85.70
2017-07-21T01:51:44.459Z,85.90
2017-07-21T01:54:12.702Z,86.40
2017-07-21T01:56:41.082Z,87.20
2017-07-21T01:59:09.344Z,86.20
2017-07-21T02:01:37.577Z,86.80
2017-07-21T02:04:05.145Z,86.70
2017-07-21T02:06:33.421Z,87.40
2017-07-21T02:09:00.953Z,87.40
2017-07-21T02:11:29.206Z,87.50
2017-07-21T02:13:57.466Z,88.10
2017-07-21T02:16:25.735Z,87.80
2017-07-21T02:18:53.246Z,87.80
2017-07-21T02:21:20.718Z,88.10
2017-07-21T02:23:48.257Z,88.10
2017-07-21T02:26:16.626Z,88.60
2017-07-21T02:28:44.167Z,88.50
2017-07-21T02:31:11.634Z,88.80
2017-07-21T02:33:39.139Z,89.00
2017-07-21T02:36:07.410Z,89.20
2017-07-21T02:38:34.986Z,89.20
2017-07-21T02:41:02.531Z,89.20
2017-07-21T02:43:30.779Z,90.40
2017-07-21T02:45:59.018Z,90.00
2017-07-21T02:48:26.586Z,90.00
2017-07-21T02:50:54.864Z,90.00
2017-07-21T02:53:22.393Z,90.00
2017-07-21T02:55:50.798Z,90.00
2017-07-21T02:58:18.270Z,89.90
2017-07-21T03:00:45.742Z,90.10
2017-07-21T03:03:14.101Z,90.10
2017-07-21T03:05:42.370Z,89.50
2017-07-21T03:08:09.911Z,89.50
2017-07-21T03:10:38.355Z,89.90
2017-07-21T03:13:05.829Z,89.90
2017-07-21T03:15:33.362Z,89.70
2017-07-21T03:18:00.898Z,89.90
2017-07-21T03:20:29.143Z,90.30
2017-07-21T03:23:08.527Z,90.30
2017-07-21T03:25:36.030Z,90.00
2017-07-21T03:28:03.566Z,90.00
2017-07-21T03:30:32.026Z,89.90
2017-07-21T03:33:00.274Z,90.10
2017-07-21T03:35:27.839Z,90.10
2017-07-21T03:37:56.110Z,90.40
2017-07-21T03:40:24.370Z,90.20
2017-07-21T03:42:52.626Z,90.20
2017-07-21T03:45:20.990Z,90.20
2017-07-21T03:47:49.226Z,90.20
2017-07-21T03:50:16.701Z,90.20
2017-07-21T03:52:44.237Z,90.20
2017-07-21T03:55:12.497Z,90.40
2017-07-21T03:57:40.758Z,90.10
2017-07-21T04:00:08.994Z,90.20
2017-07-21T04:02:36.466Z,90.10
2017-07-21T04:05:03.946Z,90.20
2017-07-21T04:07:31.445Z,90.10
2017-07-21T04:09:59.727Z,90.10
2017-07-21T04:12:27.255Z,90.00
2017-07-21T04:14:54.730Z,89.40
2017-07-21T04:17:22.201Z,88.70
2017-07-21T04:19:49.718Z,89.40
2017-07-21T04:22:17.218Z,89.70
2017-07-21T04:24:45.477Z,88.60
2017-07-21T04:27:13.126Z,88.50
2017-07-21T04:29:40.607Z,87.70
2017-07-21T04:32:08.111Z,87.80
2017-07-21T04:34:35.849Z,87.90
2017-07-21T04:37:03.323Z,87.60
2017-07-21T04:39:30.846Z,87.20
2017-07-21T04:41:58.335Z,87.90
2017-07-21T04:44:25.830Z,86.90
2017-07-21T04:46:53.307Z,87.40
2017-07-21T04:49:20.809Z,87.50
2017-07-21T04:51:48.554Z,87.10
2017-07-21T04:54:16.823Z,85.30
2017-07-21T04:56:44.302Z,85.20
2017-07-21T04:59:11.905Z,85.40
2017-07-21T05:01:40.138Z,83.30
2017-07-21T05:04:07.606Z,83.30
2017-07-21T05:06:36.070Z,82.30
2017-07-21T05:09:04.336Z,81.70
2017-07-21T05:11:32.693Z,81.80
2017-07-21T05:14:00.958Z,81.60
2017-07-21T05:16:29.196Z,81.70
2017-07-21T05:18:56.762Z,81.60
2017-07-21T05:21:25.022Z,81.10
2017-07-21T05:23:53.277Z,80.70
2017-07-21T05:26:21.738Z,80.20
2017-07-21T05:28:49.986Z,80.70
2017-07-21T05:31:18.266Z,78.50
2017-07-21T05:33:46.725Z,78.40
2017-07-21T05:36:14.998Z,78.20
2017-07-21T05:38:42.487Z,78.10
2017-07-21T05:41:10.026Z,78.90
2017-07-21T05:43:38.267Z,79.40
2017-07-21T05:46:05.733Z,79.40
2017-07-21T05:48:33.284Z,78.90
2017-07-21T05:51:00.763Z,78.50
2017-07-21T05:53:28.260Z,77.30
2017-07-21T05:55:56.613Z,78.20
2017-07-21T05:58:24.878Z,77.00
2017-07-21T06:00:53.120Z,77.60
2017-07-21T06:03:20.785Z,77.50
2017-07-21T06:05:49.046Z,78.00
2017-07-21T06:08:17.306Z,77.10
2017-07-21T06:10:45.765Z,77.70
2017-07-21T06:13:14.034Z,77.80
2017-07-21T06:15:41.575Z,77.80
2017-07-21T06:18:10.038Z,77.40
2017-07-21T06:20:38.302Z,77.00
2017-07-21T06:23:05.848Z,77.00
2017-07-21T06:25:33.353Z,76.00
2017-07-21T06:28:00.933Z,76.70
2017-07-21T06:30:29.281Z,75.50
2017-07-21T06:32:57.554Z,76.20
2017-07-21T06:35:25.102Z,75.30
2017-07-21T06:37:52.738Z,72.50
2017-07-21T06:40:20.201Z,72.90
2017-07-21T06:42:47.681Z,72.30
2017-07-21T06:45:15.213Z,71.40
2017-07-21T06:47:43.478Z,72.10
2017-07-21T06:50:11.739Z,72.90
2017-07-21T06:52:40.203Z,71.10
2017-07-21T06:55:08.437Z,68.60
2017-07-21T06:57:35.910Z,68.50
2017-07-21T07:00:03.450Z,68.70
2017-07-21T07:02:30.993Z,68.50
2017-07-21T07:04:59.250Z,68.90
2017-07-21T07:07:27.718Z,71.70
2017-07-21T07:09:55.958Z,70.30
2017-07-21T07:12:23.518Z,70.20
2017-07-21T07:14:51.874Z,68.90
2017-07-21T07:17:20.146Z,69.00
2017-07-21T07:19:48.402Z,68.20
2017-07-21T07:22:16.658Z,68.70
2017-07-21T07:24:44.926Z,66.40
2017-07-21T07:27:12.469Z,66.30
2017-07-21T07:29:40.821Z,66.10
2017-07-21T07:32:09.058Z,65.20
2017-07-21T07:34:36.526Z,65.20
2017-07-21T07:37:04.998Z,64.50
2017-07-21T07:39:32.497Z,64.50
2017-07-21T07:42:00.030Z,63.30
2017-07-21T07:44:28.398Z,59.00
2017-07-21T07:46:56.630Z,61.20
2017-07-21T07:49:24.197Z,61.20
2017-07-21T07:51:52.444Z,57.50
2017-07-21T07:54:20.009Z,57.50
2017-07-21T07:56:48.261Z,57.70
2017-07-21T07:59:16.497Z,56.70
2017-07-21T08:01:44.070Z,56.70
2017-07-21T08:04:12.334Z,56.30
2017-07-21T08:06:40.632Z,55.90
2017-07-21T08:09:08.094Z,55.80
2017-07-21T08:11:35.673Z,55.10
2017-07-21T08:14:03.914Z,55.50
2017-07-21T08:16:31.382Z,55.50
2017-07-21T08:18:59.646Z,56.00
2017-07-21T08:21:27.178Z,55.90
2017-07-21T08:23:55.412Z,53.70
2017-07-21T08:26:23.087Z,53.70
2017-07-21T08:28:51.350Z,55.10
2017-07-21T08:31:19.608Z,53.50
2017-07-21T08:33:47.862Z,54.80
2017-07-21T08:36:16.089Z,52.60
2017-07-21T08:38:43.802Z,52.50
2017-07-21T08:41:12.071Z,55.00
2017-07-21T08:43:40.322Z,54.30
2017-07-21T08:46:08.569Z,57.10
2017-07-21T08:48:36.797Z,57.80
2017-07-21T08:51:04.286Z,57.10
2017-07-21T08:53:32.530Z,53.90
2017-07-21T08:55:59.997Z,53.80
2017-07-21T08:58:27.534Z,53.10
2017-07-21T09:00:55.766Z,51.60
2017-07-21T09:03:23.226Z,51.60
2017-07-21T09:05:51.495Z,52.50
2017-07-21T09:08:19.753Z,52.30
2017-07-21T09:10:48.017Z,50.30
2017-07-21T09:13:16.374Z,50.60
2017-07-21T09:15:44.633Z,52.60
2017-07-21T09:18:12.904Z,51.60
2017-07-21T09:20:41.358Z,49.30
2017-07-21T09:23:09.621Z,50.40
2017-07-21T09:25:37.879Z,49.00
2017-07-21T09:28:06.122Z,48.80
2017-07-21T09:30:34.606Z,47.10
2017-07-21T09:33:02.861Z,48.10
2017-07-21T09:35:31.093Z,49.30
2017-07-21T09:37:58.974Z,49.30
2017-07-21T09:40:27.238Z,47.40
2017-07-21T09:42:55.471Z,47.90
2017-07-21T09:45:22.606Z,47.90
2017-07-21T09:47:50.194Z,49.70
2017-07-21T09:50:17.657Z,50.10
2017-07-21T09:52:45.138Z,49.40
2017-07-21T09:55:12.700Z,49.50
2017-07-21T09:57:40.957Z,47.30
2017-07-21T10:00:09.218Z,47.50
2017-07-21T10:02:37.485Z,47.30
2017-07-21T10:05:05.750Z,49.70
2017-07-21T10:07:34.106Z,47.90
2017-07-21T10:10:01.599Z,47.80
2017-07-21T10:12:29.062Z,46.50
2017-07-21T10:14:56.738Z,46.40
2017-07-21T10:17:24.970Z,45.00
2017-07-21T10:19:52.430Z,45.00
2017-07-21T10:22:20.697Z,45.00
2017-07-21T10:24:48.921Z,44.90
2017-07-21T10:27:16.494Z,44.80
2017-07-21T10:29:44.722Z,45.00
2017-07-21T10:32:12.198Z,44.90
2017-07-21T10:34:40.461Z,44.80
2017-07-21T10:37:08.721Z,46.10
2017-07-21T10:39:36.243Z,46.00
2017-07-21T10:42:04.502Z,42.60
2017-07-21T10:44:32.734Z,43.00
2017-07-21T10:47:00.301Z,42.90
2017-07-21T10:49:28.566Z,42.40
2017-07-21T10:51:56.834Z,42.80
2017-07-21T10:54:25.098Z,41.60
2017-07-21T10:56:52.636Z,41.60
2017-07-21T10:59:20.889Z,42.00
2017-07-21T11:01:49.155Z,41.50
2017-07-21T11:04:17.390Z,43.30
2017-07-21T11:06:44.870Z,43.30
2017-07-21T11:09:12.402Z,42.00
2017-07-21T11:11:40.657Z,41.20
2017-07-21T11:14:08.933Z,41.30
2017-07-21T11:16:36.662Z,41.20
2017-07-21T11:19:05.026Z,43.10
2017-07-21T11:21:33.281Z,42.10
2017-07-21T11:24:01.560Z,43.80
2017-07-21T11:26:29.102Z,43.80
2017-07-21T11:28:56.569Z,43.10
2017-07-21T11:31:24.074Z,42.50
2017-07-21T11:33:51.622Z,42.30
2017-07-21T11:36:19.882Z,38.10
2017-07-21T11:38:48.141Z,37.80
2017-07-21T11:41:16.601Z,36.10
2017-07-21T11:43:44.839Z,36.10
2017-07-21T11:46:12.298Z,36.10
2017-07-21T11:48:40.745Z,34.50
2017-07-21T11:51:08.210Z,34.40
2017-07-21T11:53:36.444Z,31.30
2017-07-21T11:56:04.019Z,31.30
2017-07-21T11:58:31.554Z,29.00
2017-07-21T12:01:00.026Z,28.20
2017-07-21T12:03:28.286Z,25.80
2017-07-21T12:05:56.550Z,26.60
2017-07-21T12:08:24.186Z,26.50
2017-07-21T12:10:52.455Z,25.70
2017-07-21T12:13:19.978Z,25.60
2017-07-21T12:15:47.542Z,25.50
2017-07-21T12:18:15.796Z,26.00
2017-07-21T12:20:44.059Z,25.80
2017-07-21T12:23:12.318Z,25.80
2017-07-21T12:25:40.559Z,23.90
2017-07-21T12:28:08.122Z,23.90
2017-07-21T12:30:36.369Z,24.50
2017-07-21T12:33:04.614Z,22.70
2017-07-21T12:35:32.078Z,22.30
2017-07-21T12:38:00.314Z,22.80
2017-07-21T12:40:27.777Z,22.80
2017-07-21T12:42:55.278Z,23.10
2017-07-21T12:45:22.741Z,23.60
2017-07-21T12:47:50.281Z,24.30
2017-07-21T12:50:17.882Z,24.00
2017-07-21T12:52:46.117Z,22.50
2017-07-21T12:55:14.398Z,24.10
2017-07-21T12:57:42.642Z,23.00
2017-07-21T13:00:10.213Z,22.90
2017-07-21T13:02:37.706Z,21.90
2017-07-21T13:05:05.178Z,21.00
2017-07-21T13:07:33.423Z,20.60
2017-07-21T13:10:00.898Z,20.60
2017-07-21T13:12:28.434Z,20.30
2017-07-21T13:14:55.934Z,20.20
2017-07-21T13:17:23.406Z,19.70
2017-07-21T13:19:51.641Z,21.80
2017-07-21T13:22:19.218Z,21.40
2017-07-21T13:24:47.445Z,21.40
2017-07-21T13:27:14.921Z,21.40
2017-07-21T13:29:42.466Z,21.00
2017-07-21T13:32:10.017Z,21.40
2017-07-21T13:34:37.495Z,20.80
2017-07-21T13:37:04.994Z,19.30
2017-07-21T13:39:32.460Z,20.40
2017-07-21T13:41:59.929Z,19.70
2017-07-21T13:44:27.498Z,21.60
2017-07-21T13:46:55.865Z,21.40
2017-07-21T13:49:23.405Z,21.40
2017-07-21T13:51:51.666Z,22.60
2017-07-21T13:54:19.937Z,23.50
2017-07-21T13:56:47.479Z,23.50
2017-07-21T13:59:15.738Z,23.00
2017-07-21T14:01:44.198Z,22.80
2017-07-21T14:04:12.459Z,22.90
2017-07-21T14:06:40.700Z,22.00
2017-07-21T14:09:08.258Z,21.90
2017-07-21T14:11:36.529Z,19.70
2017-07-21T14:14:04.073Z,19.60
2017-07-21T14:16:32.326Z,20.50
2017-07-21T14:18:59.865Z,20.40
2017-07-21T14:21:27.334Z,20.40
2017-07-21T14:23:54.858Z,20.40
2017-07-21T14:26:22.323Z,19.50
2017-07-21T14:28:49.833Z,21.90
2017-07-21T14:31:17.377Z,21.50
2017-07-21T14:33:45.641Z,19.80
2017-07-21T14:36:14.003Z,20.20
2017-07-21T14:38:41.553Z,20.10
2017-07-21T14:41:09.786Z,17.90
2017-07-21T14:43:37.462Z,17.90
2017-07-21T14:46:05.730Z,17.20
2017-07-21T14:48:33.194Z,17.10
2017-07-21T14:51:00.670Z,17.00
2017-07-21T14:53:28.349Z,17.80
2017-07-21T14:55:56.583Z,18.20
2017-07-21T14:58:24.051Z,18.20
2017-07-21T15:00:52.514Z,18.60
2017-07-21T15:03:20.755Z,16.50
2017-07-21T15:05:48.329Z,16.50
2017-07-21T15:08:16.590Z,18.40
2017-07-21T15:10:44.847Z,17.50
2017-07-21T15:13:13.109Z,17.90
2017-07-21T15:15:41.461Z,17.70
2017-07-21T15:18:09.733Z,18.60
2017-07-21T15:20:37.993Z,19.30
2017-07-21T15:23:05.530Z,19.30
2017-07-21T15:25:33.770Z,19.60
2017-07-21T15:28:01.236Z,19.60
2017-07-21T15:30:29.489Z,19.40
2017-07-21T15:32:57.754Z,20.50
2017-07-21T15:35:26.010Z,20.00
2017-07-21T15:37:54.269Z,20.00
2017-07-21T15:40:21.785Z,20.00
2017-07-21T15:42:50.242Z,19.30
2017-07-21T15:45:18.510Z,18.20
2017-07-21T15:47:46.734Z,19.40
2017-07-21T15:50:14.414Z,19.30
2017-07-21T15:52:42.642Z,17.00
2017-07-21T15:55:10.112Z,17.00
2017-07-21T15:57:38.582Z,16.80
2017-07-21T16:00:06.937Z,17.20
2017-07-21T16:02:35.207Z,16.80
2017-07-21T16:05:03.557Z,16.70
2017-07-21T16:07:31.795Z,16.70
2017-07-21T16:09:59.266Z,16.70
2017-07-21T16:12:27.531Z,18.80
2017-07-21T16:14:55.778Z,17.40
2017-07-21T16:17:24.045Z,19.00
2017-07-21T16:19:52.278Z,17.50
2017-07-21T16:22:19.781Z,17.40
2017-07-21T16:24:47.294Z,17.00
2017-07-21T16:27:15.525Z,17.00
2017-07-21T16:29:43.093Z,16.90
2017-07-21T16:32:11.358Z,17.20
2017-07-21T16:34:39.617Z,18.60
2017-07-21T16:37:07.849Z,18.00
2017-07-21T16:39:35.352Z,18.00
2017-07-21T16:42:02.810Z,18.00
2017-07-21T16:44:30.296Z,17.10
2017-07-21T16:46:58.573Z,18.20
2017-07-21T16:49:26.097Z,18.10
2017-07-21T16:51:54.362Z,16.80
2017-07-21T16:54:22.091Z,16.80
2017-07-21T16:56:49.557Z,16.90
2017-07-21T16:59:17.033Z,16.80
2017-07-21T17:01:44.525Z,17.10
2017-07-21T17:04:12.890Z,18.30
2017-07-21T17:06:41.145Z,17.90
2017-07-21T17:09:09.378Z,17.60
2017-07-21T17:11:36.966Z,17.60
2017-07-21T17:14:04.452Z,18.00
2017-07-21T17:16:31.918Z,18.80
2017-07-21T17:18:59.484Z,17.70
2017-07-21T17:21:27.745Z,19.20
2017-07-21T17:23:56.010Z,18.30
2017-07-21T17:26:24.265Z,19.10
2017-07-21T17:28:52.521Z,19.50
2017-07-21T17:31:20.758Z,18.90
2017-07-21T17:33:48.253Z,18.90
2017-07-21T17:36:15.777Z,18.60
2017-07-21T17:38:43.245Z,19.00
2017-07-21T17:41:10.742Z,19.30
2017-07-21T17:43:38.281Z,19.50
2017-07-21T17:46:06.533Z,20.70
2017-07-21T17:48:34.802Z,21.00
2017-07-21T17:51:03.030Z,20.40
2017-07-21T17:53:30.602Z,20.40
2017-07-21T17:55:58.081Z,21.80
2017-07-21T17:58:25.586Z,22.40
2017-07-21T18:00:53.841Z,24.80
2017-07-21T18:03:22.202Z,25.50
2017-07-21T18:05:50.449Z,26.00
2017-07-21T18:08:17.926Z,25.90
2017-07-21T18:10:45.454Z,27.50
2017-07-21T18:13:13.696Z,29.40
2017-07-21T18:15:41.166Z,29.40
2017-07-21T18:18:08.702Z,29.60
2017-07-21T18:20:36.242Z,30.90
2017-07-21T18:23:04.575Z,33.40
2017-07-21T18:25:32.046Z,33.30
2017-07-21T18:28:00.311Z,35.00
2017-07-21T18:30:28.571Z,34.80
2017-07-21T18:32:56.830Z,35.90
2017-07-21T18:35:25.193Z,37.40
2017-07-21T18:37:53.430Z,36.60
2017-07-21T18:40:20.910Z,36.50
2017-07-21T18:42:48.437Z,37.80
2017-07-21T18:45:15.905Z,38.10
2017-07-21T18:47:43.376Z,39.00
2017-07-21T18:50:10.850Z,38.40
2017-07-21T18:52:39.087Z,38.60
2017-07-21T18:55:06.759Z,38.60
2017-07-21T18:57:34.998Z,40.30
2017-07-21T19:00:02.580Z,40.30
2017-07-21T19:02:30.318Z,40.40
2017-07-21T19:04:58.625Z,41.80
2017-07-21T19:07:26.185Z,41.70
2017-07-21T19:09:53.766Z,42.00
2017-07-21T19:12:21.993Z,42.50
2017-07-21T19:14:49.470Z,42.50
2017-07-21T19:17:17.716Z,43.10
2017-07-21T19:19:45.266Z,43.00
2017-07-21T19:22:13.497Z,43.80
2017-07-21T19:24:41.069Z,43.80
2017-07-21T19:27:09.440Z,44.40
2017-07-21T19:29:37.746Z,44.40
2017-07-21T19:32:05.272Z,44.50
2017-07-21T19:34:32.845Z,44.10
2017-07-21T19:37:00.512Z,44.50
2017-07-21T19:39:28.026Z,45.00
2017-07-21T19:41:55.528Z,46.20
2017-07-21T19:44:23.009Z,46.60
2017-07-21T19:46:51.269Z,46.30
2017-07-21T19:49:19.514Z,47.60
2017-07-21T19:51:47.794Z,47.70
2017-07-21T19:54:15.333Z,47.70
2017-07-21T19:56:43.754Z,47.70
2017-07-21T19:59:11.217Z,47.60
2017-07-21T20:01:38.781Z,47.70
2017-07-21T20:04:07.123Z,48.80
2017-07-21T20:06:34.590Z,48.70
2017-07-21T20:09:02.058Z,49.20
2017-07-21T20:11:29.550Z,49.10
2017-07-21T20:13:57.025Z,49.20
2017-07-21T20:16:24.553Z,49.30
2017-07-21T20:18:53.014Z,49.30
2017-07-21T20:21:21.250Z,49.80
2017-07-21T20:23:48.822Z,49.80
2017-07-21T20:26:17.182Z,50.60
2017-07-21T20:28:45.467Z,50.80
2017-07-21T20:31:12.983Z,50.80
2017-07-21T20:33:41.223Z,50.10
2017-07-21T20:36:08.722Z,50.10
2017-07-21T20:38:36.198Z,49.90
2017-07-21T20:41:03.720Z,50.70
2017-07-21T20:43:31.198Z,51.20
2017-07-21T20:45:58.657Z,52.10
2017-07-21T20:48:26.231Z,51.80
2017-07-21T20:50:54.462Z,52.20
2017-07-21T20:53:22.041Z,52.20
2017-07-21T20:55:50.277Z,53.20
2017-07-21T20:58:17.744Z,53.10
2017-07-21T21:00:45.281Z,53.40
2017-07-21T21:03:13.514Z,53.30
2017-07-21T21:05:40.986Z,53.30
2017-07-21T21:08:09.443Z,52.60
2017-07-21T21:10:37.678Z,53.80
2017-07-21T21:13:05.192Z,53.70
2017-07-21T21:15:32.789Z,53.10
2017-07-21T21:18:01.027Z,53.20
2017-07-21T21:20:28.485Z,53.10
2017-07-21T21:22:56.753Z,53.90
2017-07-21T21:25:25.014Z,52.80
2017-07-21T21:27:53.279Z,54.00
2017-07-21T21:30:21.538Z,54.90
2017-07-21T21:32:49.798Z,55.20
2017-07-21T21:35:18.051Z,54.90
2017-07-21T21:37:46.278Z,54.20
2017-07-21T21:40:13.737Z,54.20
2017-07-21T21:42:41.217Z,53.80
2017-07-21T21:45:09.446Z,55.90
2017-07-21T21:47:37.022Z,55.90
2017-07-21T21:50:05.413Z,56.30
2017-07-21T21:52:32.882Z,56.30
2017-07-21T21:55:00.377Z,56.90
2017-07-21T21:57:27.921Z,56.40
2017-07-21T21:59:55.453Z,56.10
2017-07-21T22:02:23.688Z,55.20
2017-07-21T22:04:51.192Z,55.20
2017-07-21T22:07:18.649Z,56.30
2017-07-21T22:09:46.238Z,56.20
2017-07-21T22:12:14.474Z,57.00
2017-07-21T22:14:41.943Z,56.90
2017-07-21T22:17:10.405Z,55.60
2017-07-21T22:19:38.638Z,56.90
2017-07-21T22:22:06.102Z,56.90
2017-07-21T22:24:34.571Z,57.50
2017-07-21T22:27:02.126Z,57.50
2017-07-21T22:29:30.489Z,58.20
2017-07-21T22:31:58.002Z,58.20
2017-07-21T22:34:25.470Z,57.10
2017-07-21T22:36:53.693Z,56.70
2017-07-21T22:39:21.962Z,56.90
2017-07-21T22:41:50.194Z,57.80
2017-07-21T22:44:17.664Z,57.80
2017-07-21T22:46:45.906Z,57.60
2017-07-21T22:49:13.467Z,57.60
2017-07-21T22:51:41.725Z,57.40
2017-07-21T22:54:10.093Z,57.60
2017-07-21T22:56:38.346Z,57.60
2017-07-21T22:59:06.615Z,57.70
2017-07-21T23:01:34.258Z,57.70
2017-07-21T23:04:02.514Z,58.40
2017-07-21T23:06:30.764Z,58.00
2017-07-21T23:08:58.530Z,58.00
2017-07-21T23:11:26.754Z,59.20
2017-07-21T23:13:54.329Z,59.00
2017-07-21T23:16:22.796Z,58.80
2017-07-21T23:18:51.100Z,58.70
2017-07-21T23:21:18.562Z,58.70
2017-07-21T23:23:46.034Z,58.80
2017-07-21T23:26:14.298Z,59.20
2017-07-21T23:28:42.664Z,59.20
2017-07-21T23:31:10.899Z,59.10
2017-07-21T23:33:38.362Z,59.10
2017-07-21T23:36:06.622Z,59.60
2017-07-21T23:38:34.169Z,59.60
2017-07-21T23:41:01.651Z,60.00
2017-07-21T23:43:29.233Z,60.20
2017-07-21T23:45:57.497Z,59.40
2017-07-21T23:48:25.762Z,60.10
2017-07-21T23:50:54.222Z,60.70
2017-07-21T23:53:22.450Z,60.40
2017-07-21T23:55:49.922Z,60.30
2017-07-21T23:58:18.286Z,59.90
